Time;durP1;ratioP1;P1;durP2;ratioP2;P2;SDS_P1;SDS_P2;PMS_P1;PMS_P2;Temp;Humidity;BMP_temperature;BMP_pressure;BME280_temperature;BME280_humidity;BME280_pressure;Samples;Min_cycle;Max_cycle;Signal;HPM_P1;HPM_P2
2022/10/22 00:01:19;;;;;;;15.82;6.60;;;16.40;99.90;;;16.51;98.17;100622.38;4898553;29;20057;-66
2022/10/22 00:03:47;;;;;;;14.20;6.30;;;16.30;99.90;;;16.57;98.06;100625.69;4898379;29;20060;-66
2022/10/22 00:06:15;;;;;;;13.18;6.80;;;16.30;99.90;;;16.50;98.61;100633.97;4898538;29;20228;-66
2022/10/22 00:08:45;;;;;;;14.10;6.57;;;16.30;99.90;;;16.38;99.32;100643.22;4898521;29;20048;-66
2022/10/22 00:11:16;;;;;;;15.52;6.63;;;16.20;99.90;;;16.36;99.52;100642.38;4898439;29;20052;-66
2022/10/22 00:13:45;;;;;;;13.07;7.03;;;16.20;99.90;;;16.09;99.87;100590.75;4898507;29;20048;-66
2022/10/22 00:16:18;;;;;;;17.33;6.60;;;16.10;99.90;;;16.33;99.93;100633.59;4898151;29;20049;-66
2022/10/22 00:18:46;;;;;;;13.30;6.85;;;16.10;99.90;;;16.33;100.00;100639.81;4898099;29;20566;-66
2022/10/22 00:21:15;;;;;;;11.68;6.50;;;16.10;99.90;;;16.38;100.00;100651.22;4898098;29;20056;-66
2022/10/22 00:23:45;;;;;;;14.70;6.18;;;16.20;99.90;;;16.36;100.00;100655.72;4897051;29;20049;-66
2022/10/22 00:26:13;;;;;;;14.15;7.38;;;16.20;99.90;;;16.41;100.00;100648.47;4898328;29;20054;-66
2022/10/22 00:28:41;;;;;;;13.48;7.50;;;16.20;99.90;;;16.41;100.00;100651.13;4898286;29;20392;-66
2022/10/22 00:31:10;;;;;;;13.75;6.90;;;16.20;99.90;;;16.46;100.00;100648.28;4898168;29;20049;-66
2022/10/22 00:33:39;;;;;;;16.08;7.68;;;16.30;99.90;;;16.42;100.00;100652.88;4898215;29;20440;-66
2022/10/22 00:36:08;;;;;;;13.07;7.05;;;16.20;99.90;;;16.41;100.00;100659.16;4897903;29;20056;-66
2022/10/22 00:38:36;;;;;;;17.88;7.57;;;16.20;99.90;;;16.42;100.00;100646.66;4898166;29;20048;-66
2022/10/22 00:41:07;;;;;;;17.45;7.03;;;16.30;99.90;;;16.45;100.00;100658.13;4897893;29;20045;-66
2022/10/22 00:43:53;;;;;;;;;;;16.20;99.90;;;16.50;100.00;100655.31;4898611;29;20406;-66
2022/10/22 00:46:22;;;;;;;12.88;7.22;;;16.30;99.90;;;16.57;100.00;100659.56;4898217;29;20365;-66
2022/10/22 00:48:51;;;;;;;17.23;7.03;;;16.40;99.90;;;16.50;100.00;100663.34;4897787;29;20041;-67
2022/10/22 00:51:22;;;;;;;13.70;6.43;;;16.30;99.90;;;16.58;100.00;100662.19;4897970;29;20410;-66
2022/10/22 00:53:53;;;;;;;;;;;16.40;99.90;;;16.60;100.00;100664.78;4898529;29;20049;-66
2022/10/22 00:56:24;;;;;;;13.63;6.05;;;16.40;99.90;;;16.55;100.00;100658.75;4897201;29;19924;-65
2022/10/22 00:58:57;;;;;;;15.73;6.18;;;16.40;99.90;;;16.61;99.86;100674.53;4896920;29;20598;-65
2022/10/22 01:01:29;;;;;;;15.15;6.45;;;16.40;99.90;;;16.00;99.59;100552.81;4900552;29;20359;-66
2022/10/22 01:03:58;;;;;;;14.80;7.15;;;16.50;99.90;;;16.66;99.02;100662.81;4901115;29;20059;-65
2022/10/22 01:06:29;;;;;;;12.40;6.43;;;16.50;99.90;;;16.74;98.90;100666.06;4901056;29;20041;-66
2022/10/22 01:09:13;;;;;;;16.20;6.55;;;16.50;99.90;;;16.78;98.30;100672.22;4901040;29;20418;-66
2022/10/22 01:11:54;;;;;;;13.43;5.70;;;16.60;99.90;;;16.78;97.86;100682.91;4899574;29;20401;-65
2022/10/22 01:14:26;;;;;;;;;;;16.60;99.90;;;16.76;97.79;100700.78;4901122;29;20473;-65
2022/10/22 01:17:02;;;;;;;14.35;6.30;;;16.60;99.90;;;16.77;97.85;100687.38;4900907;29;19924;-65
2022/10/22 01:19:51;;;;;;;13.07;5.72;;;16.60;99.90;;;16.81;97.24;100689.00;4900621;29;20059;-65
2022/10/22 01:22:28;;;;;;;15.23;6.07;;;16.70;99.90;;;16.80;97.30;100683.72;4899630;29;20057;-66
2022/10/22 01:25:06;;;;;;;13.25;6.68;;;16.60;99.90;;;16.67;97.13;100664.53;4901006;29;20127;-66
2022/10/22 01:27:54;;;;;;;19.13;7.10;;;16.60;99.90;;;16.77;96.76;100687.38;4900465;29;20063;-66
2022/10/22 01:30:25;;;;;;;12.63;6.57;;;16.60;99.90;;;16.86;96.43;100683.53;4901034;29;20407;-66
2022/10/22 01:32:58;;;;;;;11.77;5.93;;;16.70;99.90;;;16.87;95.86;100688.81;4900584;29;20044;-66
2022/10/22 01:35:31;;;;;;;12.35;5.43;;;16.70;99.90;;;16.76;95.64;100682.94;4900337;29;20059;-67
2022/10/22 01:38:05;;;;;;;15.02;5.82;;;16.70;99.90;;;16.80;95.50;100668.56;4900261;29;20403;-66
2022/10/22 01:40:35;;;;;;;14.52;6.03;;;16.70;99.90;;;16.87;95.32;100686.16;4899257;29;20509;-66
2022/10/22 01:43:08;;;;;;;12.73;6.13;;;16.70;99.90;;;16.93;95.14;100680.59;4900187;29;20045;-66
2022/10/22 01:45:43;;;;;;;14.48;5.70;;;16.70;99.90;;;16.88;95.29;100677.19;4900461;29;20464;-66
2022/10/22 01:48:34;;;;;;;15.23;6.22;;;16.70;99.90;;;16.84;95.08;100680.88;4900808;29;20187;-66
2022/10/22 01:51:26;;;;;;;16.35;6.55;;;16.60;99.90;;;16.95;94.94;100673.41;4900862;29;20139;-66
2022/10/22 01:54:01;;;;;;;16.80;5.82;;;16.70;99.90;;;16.95;94.44;100672.53;4900527;29;20108;-66
2022/10/22 01:56:52;;;;;;;15.40;6.45;;;16.80;99.90;;;16.96;94.07;100668.91;4900585;29;20578;-66
2022/10/22 01:59:33;;;;;;;15.43;5.95;;;16.80;99.90;;;16.95;94.20;100686.78;4900901;29;20521;-66
2022/10/22 02:02:10;;;;;;;15.95;5.75;;;16.70;99.90;;;16.99;93.88;100677.69;4900469;29;20052;-66
2022/10/22 02:04:45;;;;;;;14.05;5.82;;;16.80;99.90;;;16.96;93.72;100688.50;4900984;29;20088;-66
2022/10/22 02:07:18;;;;;;;14.70;5.03;;;16.80;99.90;;;17.17;92.60;100687.78;4899448;29;20465;-66
2022/10/22 02:09:49;;;;;;;11.18;4.95;;;16.90;99.90;;;17.26;92.24;100691.94;4899395;29;20479;-66
2022/10/22 02:12:20;;;;;;;15.05;5.53;;;17.00;99.90;;;17.28;91.65;100681.19;4900317;29;20055;-65
2022/10/22 02:14:50;;;;;;;14.80;5.80;;;17.10;99.90;;;17.13;91.52;100654.06;4900250;29;20048;-66
2022/10/22 02:17:22;;;;;;;17.20;5.05;;;17.10;99.90;;;17.23;91.14;100648.41;4900437;29;20049;-66
2022/10/22 02:19:56;;;;;;;12.75;5.72;;;17.10;99.90;;;17.39;91.01;100673.66;4900160;29;20055;-66
2022/10/22 02:22:26;;;;;;;12.23;5.10;;;17.10;99.90;;;17.51;90.37;100686.63;4900683;29;20149;-66
2022/10/22 02:24:54;;;;;;;14.33;5.57;;;17.20;99.90;;;17.39;90.11;100666.53;4900077;29;20141;-66
2022/10/22 02:27:28;;;;;;;14.52;4.97;;;17.20;99.90;;;17.55;89.83;100674.91;4899960;29;20052;-66
2022/10/22 02:30:02;;;;;;;13.43;5.90;;;17.30;99.90;;;17.54;89.25;100673.13;4900283;29;20056;-66
2022/10/22 02:32:39;;;;;;;11.55;5.18;;;17.30;99.90;;;17.62;89.17;100688.00;4900073;29;20048;-65
2022/10/22 02:35:12;;;;;;;16.70;5.47;;;17.30;99.90;;;17.63;88.76;100681.75;4900415;29;20127;-66
2022/10/22 02:37:41;;;;;;;14.98;5.00;;;17.40;99.90;;;17.56;88.91;100673.97;4900070;29;20052;-66
2022/10/22 02:40:11;;;;;;;14.73;5.35;;;17.30;99.90;;;17.10;89.37;100618.56;4900289;29;20055;-66
2022/10/22 02:42:41;;;;;;;20.00;5.38;;;17.20;99.90;;;17.45;89.54;100676.13;4899705;29;20080;-66
2022/10/22 02:45:10;;;;;;;14.23;5.07;;;17.20;99.90;;;17.50;89.26;100679.56;4900027;29;20060;-66
2022/10/22 02:47:40;;;;;;;13.98;4.97;;;17.30;99.90;;;17.44;88.96;100658.34;4899902;29;20382;-66
2022/10/22 02:50:09;;;;;;;13.93;5.27;;;17.30;99.90;;;17.48;89.29;100682.25;4898599;29;20147;-66
2022/10/22 02:52:38;;;;;;;15.63;5.20;;;17.20;99.90;;;17.48;89.40;100674.22;4898442;29;20280;-66
2022/10/22 02:55:07;;;;;;;16.27;5.15;;;17.20;99.90;;;17.34;89.57;100648.91;4899478;29;20104;-66
2022/10/22 02:57:36;;;;;;;13.23;5.10;;;17.20;99.90;;;17.50;89.31;100685.75;4899197;29;20393;-66
2022/10/22 03:00:06;;;;;;;16.58;5.35;;;17.20;99.90;;;17.24;89.47;100655.50;4898515;29;20045;-66
2022/10/22 03:02:35;;;;;;;15.73;5.55;;;17.20;99.90;;;17.27;89.75;100664.28;4898560;29;20451;-66
2022/10/22 03:05:05;;;;;;;21.08;5.50;;;17.10;99.90;;;17.39;90.00;100681.69;4898674;29;20372;-66
2022/10/22 03:07:34;;;;;;;12.35;5.43;;;17.10;99.90;;;17.45;89.73;100678.78;4897430;29;20144;-66
2022/10/22 03:10:02;;;;;;;13.90;5.53;;;17.20;99.90;;;17.46;89.55;100681.41;4898626;29;20062;-65
2022/10/22 03:12:30;;;;;;;11.93;5.03;;;17.20;99.90;;;17.24;89.60;100650.13;4898460;29;20380;-66
2022/10/22 03:14:59;;;;;;;17.13;5.90;;;17.10;99.90;;;17.35;89.78;100686.28;4898520;29;20100;-66
2022/10/22 03:17:27;;;;;;;12.13;5.07;;;17.10;99.90;;;17.37;89.92;100697.78;4898269;29;20083;-66
2022/10/22 03:19:55;;;;;;;12.18;5.47;;;17.10;99.90;;;17.39;89.94;100677.22;4898241;29;20414;-66
2022/10/22 03:22:29;;;;;;;14.85;5.60;;;17.10;99.90;;;17.47;89.57;100691.19;4897554;29;20384;-65
2022/10/22 03:25:00;;;;;;;11.10;4.88;;;17.20;99.90;;;17.39;89.81;100689.69;4898178;29;20108;-65
2022/10/22 03:27:30;;;;;;;14.43;5.05;;;17.10;99.90;;;17.33;89.85;100676.53;4898666;29;20087;-66
2022/10/22 03:29:59;;;;;;;11.38;5.32;;;17.10;99.90;;;17.42;89.61;100679.75;4898266;29;20040;-66
2022/10/22 03:32:28;;;;;;;14.55;5.15;;;17.20;99.90;;;17.35;89.66;100680.91;4898078;29;20052;-66
2022/10/22 03:34:56;;;;;;;12.63;4.78;;;17.20;99.90;;;17.38;89.91;100685.28;4897868;29;20040;-66
2022/10/22 03:37:27;;;;;;;14.52;5.45;;;17.10;99.90;;;17.34;89.94;100689.88;4897930;29;20048;-66
2022/10/22 03:39:55;;;;;;;10.07;5.43;;;17.10;99.90;;;17.44;89.88;100693.09;4898194;29;20060;-66
2022/10/22 03:42:24;;;;;;;20.05;5.72;;;17.10;99.90;;;17.49;89.64;100696.50;4896879;29;20052;-65
2022/10/22 03:44:53;;;;;;;16.13;5.10;;;17.20;99.90;;;17.54;89.17;100690.06;4897851;29;20104;-66
2022/10/22 03:47:23;;;;;;;15.30;5.47;;;17.30;99.90;;;17.31;88.90;100659.69;4897714;29;20048;-66
2022/10/22 03:49:51;;;;;;;12.93;5.47;;;17.30;99.90;;;17.51;89.11;100700.00;4898002;29;20067;-66
2022/10/22 03:52:20;;;;;;;11.45;5.43;;;17.20;99.90;;;17.47;89.12;100707.25;4897917;29;20055;-66
2022/10/22 03:54:49;;;;;;;12.85;5.88;;;17.20;99.90;;;17.39;89.24;100701.28;4897582;29;20131;-66
2022/10/22 03:57:18;;;;;;;19.93;6.13;;;17.20;99.90;;;17.46;89.16;100710.81;4889918;29;241808;-66
2022/10/22 03:59:47;;;;;;;13.52;5.63;;;17.20;99.90;;;17.38;89.37;100688.81;4897406;29;20292;-66
2022/10/22 04:02:15;;;;;;;16.27;6.00;;;17.20;99.90;;;17.25;89.69;100690.19;4898336;29;20044;-66
2022/10/22 04:04:43;;;;;;;13.90;6.22;;;17.10;99.90;;;17.29;89.75;100705.19;4897365;29;20102;-66
2022/10/22 04:07:12;;;;;;;22.30;6.70;;;17.10;99.90;;;17.33;89.72;100703.28;4898256;29;20053;-66
2022/10/22 04:09:40;;;;;;;14.73;6.18;;;17.10;99.90;;;17.25;89.59;100716.91;4898152;29;20057;-66
2022/10/22 04:12:10;;;;;;;16.40;5.82;;;17.10;99.90;;;17.35;89.57;100718.34;4897176;29;20063;-66
2022/10/22 04:14:38;;;;;;;14.63;6.15;;;17.10;99.90;;;17.31;89.46;100702.47;4897148;29;20056;-66
2022/10/22 04:17:07;;;;;;;18.15;6.05;;;17.10;99.90;;;17.28;89.31;100695.44;4898106;29;20036;-66
2022/10/22 04:19:35;;;;;;;13.63;5.03;;;17.10;99.90;;;17.46;88.87;100712.66;4898105;29;20045;-66
2022/10/22 04:22:03;;;;;;;16.17;6.25;;;17.20;99.90;;;17.52;88.82;100710.66;4898298;29;20081;-66
2022/10/22 04:24:32;;;;;;;22.90;6.05;;;17.20;99.90;;;17.44;88.71;100728.72;4898255;29;20053;-66
2022/10/22 04:27:01;;;;;;;13.93;5.45;;;17.20;99.90;;;17.47;88.68;100717.06;4897042;29;20108;-66
2022/10/22 04:29:30;;;;;;;19.35;6.15;;;17.20;99.90;;;17.46;88.67;100715.31;4898210;29;20411;-66
2022/10/22 04:31:59;;;;;;;17.15;5.32;;;17.20;99.90;;;17.19;88.71;100681.53;4898024;29;20041;-66
2022/10/22 04:34:28;;;;;;;18.17;5.40;;;17.10;99.90;;;17.37;88.61;100726.31;4897189;29;20093;-66
2022/10/22 04:36:56;;;;;;;18.55;5.97;;;17.10;99.90;;;17.35;88.91;100754.91;4898254;29;20511;-66
2022/10/22 04:39:25;;;;;;;15.00;5.60;;;17.10;99.90;;;17.33;88.89;100724.66;4897897;29;20053;-66
2022/10/22 04:41:53;;;;;;;14.60;5.07;;;17.10;99.90;;;17.34;88.87;100724.66;4898076;29;20049;-66
2022/10/22 04:44:21;;;;;;;16.90;5.78;;;17.10;99.90;;;17.38;88.73;100736.09;4898105;29;20053;-66
2022/10/22 04:46:51;;;;;;;15.35;5.00;;;17.10;99.90;;;17.35;88.37;100729.06;4898386;29;20053;-66
2022/10/22 04:49:20;;;;;;;14.53;5.40;;;17.10;99.90;;;17.39;88.37;100737.84;4897107;29;20054;-67
2022/10/22 04:51:48;;;;;;;13.38;5.65;;;17.10;99.90;;;17.36;88.45;100740.63;4897849;29;20312;-67
2022/10/22 04:54:16;;;;;;;16.75;5.85;;;17.10;99.90;;;17.33;88.41;100746.94;4897972;29;20394;-67
2022/10/22 04:56:45;;;;;;;18.30;5.65;;;17.00;99.90;;;17.17;88.19;100719.84;4897982;29;20088;-67
2022/10/22 04:59:13;;;;;;;18.20;5.85;;;17.00;99.90;;;17.29;88.42;100752.44;4898114;29;20052;-67
2022/10/22 05:01:44;;;;;;;13.32;5.80;;;17.00;99.90;;;17.35;88.34;100750.44;4897724;29;20104;-67
2022/10/22 05:04:15;;;;;;;;;;;17.00;99.90;;;17.26;88.19;100741.84;4898411;29;20418;-67
2022/10/22 05:06:43;;;;;;;18.38;5.70;;;17.00;99.90;;;16.96;88.27;100685.84;4898075;29;20274;-66
2022/10/22 05:09:17;;;;;;;14.70;5.25;;;16.90;99.90;;;16.93;88.55;100696.63;4897717;29;20074;-66
2022/10/22 05:11:48;;;;;;;16.50;5.50;;;16.90;99.90;;;17.20;88.69;100750.09;4897631;29;20206;-67
2022/10/22 05:14:19;;;;;;;15.20;5.10;;;16.90;99.90;;;17.17;89.03;100756.38;4896278;29;20049;-67
2022/10/22 05:16:48;;;;;;;16.40;5.63;;;16.80;99.90;;;16.93;89.33;100710.00;4896668;29;20562;-66
2022/10/22 05:19:22;;;;;;;16.33;5.40;;;16.90;99.90;;;17.18;89.39;100758.16;4897836;29;20047;-66
2022/10/22 05:21:51;;;;;;;12.00;5.18;;;16.80;99.90;;;17.22;89.51;100753.56;4897609;29;20562;-66
2022/10/22 05:24:20;;;;;;;14.32;5.43;;;16.90;99.90;;;17.21;89.42;100752.69;4897591;29;20069;-66
2022/10/22 05:26:49;;;;;;;13.48;5.70;;;16.90;99.90;;;17.17;89.49;100761.75;4897759;29;20040;-66
2022/10/22 05:29:18;;;;;;;15.75;4.93;;;16.90;99.90;;;17.16;89.53;100752.00;4897517;29;20049;-66
2022/10/22 05:31:47;;;;;;;11.32;4.97;;;16.90;99.90;;;17.09;89.32;100745.97;4897910;29;20474;-66
2022/10/22 05:34:19;;;;;;;17.60;5.93;;;16.90;99.90;;;17.19;89.34;100754.53;4897321;29;20073;-67
2022/10/22 05:36:48;;;;;;;17.42;5.85;;;16.90;99.90;;;17.24;89.50;100751.72;4898034;29;20558;-66
2022/10/22 05:39:16;;;;;;;17.50;5.90;;;16.90;99.90;;;17.29;89.34;100757.78;4897666;29;20078;-67
2022/10/22 05:41:44;;;;;;;17.83;5.25;;;16.90;99.90;;;17.24;89.10;100768.66;4897376;29;20045;-66
2022/10/22 05:44:13;;;;;;;12.68;5.18;;;16.90;99.90;;;17.30;88.96;100764.91;4897540;29;20048;-67
2022/10/22 05:46:42;;;;;;;12.55;5.68;;;17.00;99.90;;;17.33;88.75;100770.13;4899487;29;20044;-66
2022/10/22 05:49:14;;;;;;;14.10;5.55;;;17.00;99.90;;;17.33;88.57;100781.72;4900966;29;20045;-66
2022/10/22 05:51:44;;;;;;;15.05;6.10;;;17.00;99.90;;;17.31;88.68;100782.66;4901243;29;20066;-66
2022/10/22 05:54:20;;;;;;;13.27;5.63;;;16.90;99.90;;;17.26;88.76;100782.84;4900562;29;20430;-66
2022/10/22 05:56:49;;;;;;;14.82;5.15;;;16.90;99.90;;;17.30;88.70;100783.63;4900914;29;20308;-66
2022/10/22 05:59:17;;;;;;;15.13;5.93;;;16.90;99.90;;;17.32;88.57;100785.31;4900674;29;20061;-67
2022/10/22 06:01:45;;;;;;;12.48;5.97;;;17.00;99.90;;;17.26;88.54;100781.97;4900760;29;20045;-68
2022/10/22 06:04:15;;;;;;;10.68;4.75;;;17.00;99.90;;;16.73;88.36;100707.09;4900416;29;20486;-68
2022/10/22 06:06:46;;;;;;;15.43;5.32;;;17.00;99.90;;;17.31;88.61;100790.69;4900456;29;20128;-68
2022/10/22 06:09:20;;;;;;;14.95;5.35;;;17.00;99.90;;;17.28;88.67;100797.03;4899421;29;20533;-68
2022/10/22 06:11:49;;;;;;;18.42;5.57;;;17.00;99.90;;;17.29;88.90;100806.78;4900379;29;20066;-68
2022/10/22 06:14:19;;;;;;;12.00;4.97;;;16.90;99.90;;;17.23;89.01;100803.47;4900251;29;20047;-68
2022/10/22 06:16:47;;;;;;;15.00;6.50;;;16.90;99.90;;;17.14;89.19;100805.50;4900249;29;20076;-68
2022/10/22 06:19:18;;;;;;;21.08;5.80;;;16.90;99.90;;;17.22;89.23;100801.69;4900434;29;20044;-68
2022/10/22 06:21:48;;;;;;;;;;;16.90;99.90;;;17.26;89.16;100816.72;4900656;29;20107;-68
2022/10/22 06:24:16;;;;;;;14.97;5.40;;;16.90;99.90;;;17.13;89.03;100802.84;4900668;29;19958;-66
2022/10/22 06:26:45;;;;;;;17.15;5.90;;;16.90;99.90;;;17.25;89.40;100820.34;4900458;29;20292;-66
2022/10/22 06:29:13;;;;;;;12.73;5.22;;;16.90;99.90;;;17.10;89.25;100781.59;4899649;29;20127;-67
2022/10/22 06:31:41;;;;;;;18.15;5.60;;;17.00;99.90;;;17.25;89.33;100807.81;4900099;29;20048;-67
2022/10/22 06:34:12;;;;;;;15.40;5.72;;;17.00;99.90;;;17.20;89.40;100846.31;4899872;29;20148;-67
2022/10/22 06:36:41;;;;;;;16.33;5.70;;;17.00;99.90;;;17.28;89.25;100817.53;4898917;29;20048;-67
2022/10/22 06:39:14;;;;;;;18.48;6.43;;;17.00;99.90;;;17.16;89.49;100834.84;4900146;29;20403;-67
2022/10/22 06:41:43;;;;;;;19.52;5.78;;;16.90;99.90;;;17.14;89.59;100793.94;4899889;29;20458;-67
2022/10/22 06:44:15;;;;;;;13.00;5.65;;;17.00;99.90;;;17.31;89.55;100828.13;4899712;29;20046;-67
2022/10/22 06:46:44;;;;;;;15.55;6.18;;;17.00;99.90;;;17.46;89.35;100835.66;4899917;29;20159;-65
2022/10/22 06:49:14;;;;;;;12.45;5.80;;;17.10;99.90;;;17.42;89.27;100834.88;4899893;29;20051;-65
2022/10/22 06:51:42;;;;;;;14.77;5.78;;;17.10;99.90;;;17.42;89.31;100847.41;4898605;29;20144;-65
2022/10/22 06:54:12;;;;;;;14.27;5.75;;;17.10;99.90;;;17.38;89.44;100829.69;4899502;29;20045;-64
2022/10/22 06:56:41;;;;;;;17.48;5.40;;;17.10;99.90;;;17.48;89.76;100858.78;4899058;29;20041;-66
2022/10/22 06:59:09;;;;;;;16.77;5.28;;;17.20;99.90;;;17.56;89.68;100866.53;4897596;29;20052;-66
2022/10/22 07:01:38;;;;;;;13.30;4.88;;;17.20;99.90;;;17.38;89.53;100851.94;4899578;29;20080;-66
2022/10/22 07:04:07;;;;;;;14.70;5.63;;;17.20;99.90;;;17.44;89.53;100864.25;4898354;29;20060;-67
2022/10/22 07:06:36;;;;;;;17.08;6.10;;;17.10;99.90;;;17.41;89.77;100865.22;4899502;29;20048;-67
2022/10/22 07:09:04;;;;;;;13.43;4.90;;;17.20;99.90;;;17.28;89.69;100846.94;4899286;29;20447;-64
2022/10/22 07:11:41;;;;;;;15.30;5.63;;;17.20;99.90;;;17.51;89.96;100884.56;4899248;29;20059;-67
2022/10/22 07:14:10;;;;;;;16.70;6.10;;;17.20;99.90;;;17.51;89.70;100876.53;4899222;29;20054;-69
2022/10/22 07:16:40;;;;;;;14.43;4.82;;;17.20;99.90;;;17.61;89.80;100880.66;4899209;29;20045;-69
2022/10/22 07:19:11;;;;;;;;;;;17.30;99.90;;;17.44;89.17;100857.09;4899465;29;20047;-69
2022/10/22 07:21:40;;;;;;;17.65;5.90;;;17.30;99.90;;;17.77;88.82;100896.13;4897983;29;20400;-69
2022/10/22 07:24:08;;;;;;;20.63;5.90;;;17.40;99.90;;;17.99;88.14;100909.69;4898980;29;20048;-69
2022/10/22 07:26:38;;;;;;;19.17;6.28;;;17.70;99.90;;;18.15;86.95;100905.56;4897856;29;20077;-69
2022/10/22 07:29:08;;;;;;;15.68;5.10;;;17.80;99.90;;;18.04;86.43;100905.03;4899384;29;20043;-67
2022/10/22 07:31:40;;;;;;;15.82;5.38;;;17.80;99.90;;;17.99;86.38;100920.38;4898885;29;20037;-67
2022/10/22 07:34:09;;;;;;;10.60;5.20;;;17.70;99.90;;;17.96;86.57;100924.03;4899062;29;20071;-68
2022/10/22 07:36:39;;;;;;;14.38;5.10;;;17.70;99.90;;;17.94;86.86;100923.22;4898617;29;20044;-67
2022/10/22 07:39:07;;;;;;;13.65;5.35;;;17.60;99.90;;;17.84;87.26;100924.47;4898910;29;20071;-67
2022/10/22 07:41:35;;;;;;;16.38;5.18;;;17.60;99.90;;;17.90;87.34;100942.13;4898474;29;20044;-68
2022/10/22 07:44:06;;;;;;;16.17;5.43;;;17.60;99.90;;;17.90;87.46;100942.13;4897277;29;20063;-69
2022/10/22 07:46:34;;;;;;;14.07;5.55;;;17.60;99.90;;;17.96;87.22;100948.13;4898560;29;20053;-65
2022/10/22 07:49:02;;;;;;;13.88;5.25;;;17.60;99.90;;;17.84;87.67;100961.94;4898504;29;20490;-67
2022/10/22 07:51:31;;;;;;;17.02;5.53;;;17.50;99.90;;;17.63;88.08;100917.16;4898400;29;20044;-64
2022/10/22 07:53:59;;;;;;;14.73;4.80;;;17.50;99.90;;;17.76;88.13;100960.41;4898416;29;20542;-68
2022/10/22 07:56:27;;;;;;;14.77;5.15;;;17.40;99.90;;;17.72;88.45;100951.63;4898422;29;20407;-69
2022/10/22 07:58:56;;;;;;;12.15;4.93;;;17.40;99.90;;;17.62;88.44;100935.91;4898155;29;20075;-68
2022/10/22 08:01:26;;;;;;;18.52;5.35;;;17.40;99.90;;;17.78;88.45;100954.09;4898279;29;20455;-67
2022/10/22 08:03:54;;;;;;;15.07;5.40;;;17.40;99.90;;;17.77;88.59;100956.81;4897296;29;20048;-67
2022/10/22 08:06:22;;;;;;;16.00;5.25;;;17.50;99.90;;;17.72;88.97;100970.34;4898174;29;20037;-64
2022/10/22 08:08:51;;;;;;;11.18;5.40;;;17.40;99.90;;;17.71;89.00;100973.94;4898015;29;20112;-66
2022/10/22 08:11:19;;;;;;;14.80;5.13;;;17.40;99.90;;;17.72;89.00;100970.34;4898094;29;20127;-65
2022/10/22 08:13:48;;;;;;;13.73;4.93;;;17.40;99.90;;;17.77;88.88;100988.91;4897122;29;20147;-63
2022/10/22 08:16:16;;;;;;;17.42;5.43;;;17.40;99.90;;;17.73;89.20;100988.13;4898282;29;20135;-64
2022/10/22 08:18:46;;;;;;;12.50;5.05;;;17.40;99.90;;;17.79;89.26;100993.31;4897068;29;20067;-64
2022/10/22 08:21:15;;;;;;;12.63;5.10;;;17.50;99.90;;;17.80;89.53;101000.44;4898365;29;20044;-63
2022/10/22 08:23:46;;;;;;;14.02;4.50;;;17.50;99.90;;;17.72;89.36;100989.09;4898212;29;20467;-66
2022/10/22 08:26:14;;;;;;;16.48;5.38;;;17.40;99.90;;;17.76;89.58;100995.22;4898019;29;20143;-63
2022/10/22 08:28:43;;;;;;;13.10;4.60;;;17.40;99.90;;;17.60;89.47;100953.81;4897907;29;20037;-66
2022/10/22 08:31:12;;;;;;;16.15;5.85;;;17.50;99.90;;;17.79;89.49;100995.09;4897938;29;20056;-64
2022/10/22 08:33:41;;;;;;;12.10;4.43;;;17.50;99.90;;;17.82;89.12;100990.56;4897850;29;20100;-64
2022/10/22 08:36:11;;;;;;;17.13;5.28;;;17.50;99.90;;;17.89;89.33;100996.56;4897685;29;20041;-64
2022/10/22 08:38:40;;;;;;;15.18;4.80;;;17.60;99.90;;;18.22;89.19;101013.31;4897910;29;20036;-64
2022/10/22 08:41:13;;;;;;;13.07;4.35;;;17.80;99.90;;;18.16;88.07;100933.19;4897886;29;20032;-63
2022/10/22 08:44:15;;;;;;;11.75;4.50;;;18.20;99.90;;;18.98;86.27;101027.63;4897768;29;20048;-63
2022/10/22 08:47:02;;;;;;;16.63;5.20;;;18.60;99.90;;;19.21;84.18;101030.34;4897897;29;20473;-64
2022/10/22 08:49:37;;;;;;;16.52;4.97;;;18.90;99.90;;;19.24;83.02;101011.47;4897771;29;20069;-68
2022/10/22 08:52:15;;;;;;;12.77;4.53;;;19.00;99.90;;;19.65;82.44;101037.63;4898178;29;20132;-69
2022/10/22 08:54:53;;;;;;;11.73;4.47;;;19.30;99.90;;;19.99;81.21;101032.69;4897875;29;20062;-68
2022/10/22 08:57:42;;;;;;;12.38;4.38;;;19.60;99.90;;;20.08;79.31;101045.72;4897539;29;20123;-67
2022/10/22 09:00:21;;;;;;;13.70;4.72;;;19.80;99.90;;;20.14;78.78;101018.63;4897668;29;20052;-68
2022/10/22 09:03:10;;;;;;;12.25;4.78;;;20.00;99.90;;;20.68;77.54;101066.50;4897619;29;20101;-67
2022/10/22 09:05:52;;;;;;;12.07;4.28;;;20.30;99.90;;;20.93;76.94;101058.25;4897684;29;20077;-68
2022/10/22 09:08:22;;;;;;;18.10;4.80;;;20.60;99.90;;;21.11;75.63;101076.31;4897965;29;20100;-68
2022/10/22 09:11:01;;;;;;;14.05;4.85;;;20.80;99.90;;;21.08;75.28;101063.88;4897710;29;20045;-69
2022/10/22 09:13:30;;;;;;;11.80;4.40;;;20.80;99.90;;;21.01;74.70;101058.81;4897587;29;20411;-68
2022/10/22 09:16:11;;;;;;;14.30;5.35;;;20.90;99.90;;;21.09;74.75;101068.31;4897439;29;20055;-70
2022/10/22 09:18:42;;;;;;;;;;;20.90;99.90;;;20.95;75.24;101042.91;4898480;29;20041;-68
2022/10/22 09:21:19;;;;;;;;;;;20.80;99.90;;;21.01;74.89;101074.97;4899658;29;19962;-67
2022/10/22 09:24:04;;;;;;;11.57;4.35;;;20.70;99.90;;;20.94;75.26;101073.47;4901184;29;20391;-67
2022/10/22 09:26:37;;;;;;;14.50;4.65;;;20.60;99.90;;;20.89;75.37;101081.72;4901206;29;20482;-66
2022/10/22 09:29:07;;;;;;;14.27;4.80;;;20.60;99.90;;;20.93;75.86;101083.34;4901214;29;20059;-68
2022/10/22 09:31:35;;;;;;;12.57;4.65;;;20.60;99.90;;;21.02;74.81;101074.91;4900799;29;20133;-68
2022/10/22 09:34:06;;;;;;;12.20;4.45;;;20.70;99.90;;;20.98;74.57;101092.06;4900706;29;20203;-67
2022/10/22 09:36:35;;;;;;;15.07;5.25;;;20.70;99.90;;;21.30;74.73;101094.28;4900909;29;20048;-68
2022/10/22 09:39:21;;;;;;;12.50;4.47;;;20.90;99.90;;;21.56;73.63;101096.63;4900818;29;20068;-68
2022/10/22 09:41:50;;;;;;;16.65;5.00;;;21.20;99.90;;;21.72;72.91;101101.34;4900855;29;20455;-67
2022/10/22 09:44:18;;;;;;;15.85;4.57;;;21.40;99.90;;;21.73;72.86;101089.59;4900832;29;20052;-68
2022/10/22 09:46:47;;;;;;;16.67;5.35;;;21.40;99.90;;;21.60;71.73;101104.59;4900484;29;20078;-67
2022/10/22 09:49:18;;;;;;;13.88;4.18;;;21.30;99.90;;;21.53;71.19;101096.78;4900531;29;20041;-67
2022/10/22 09:51:53;;;;;;;17.05;5.40;;;21.30;99.90;;;21.53;71.29;101101.28;4900617;29;20044;-67
2022/10/22 09:54:25;;;;;;;14.63;4.68;;;21.20;99.90;;;21.51;71.70;101084.34;4900633;29;20532;-68
2022/10/22 09:56:57;;;;;;;19.08;4.78;;;21.30;99.90;;;21.62;70.92;101100.00;4900682;29;20131;-67
2022/10/22 09:59:32;;;;;;;23.55;5.93;;;21.40;99.90;;;21.40;70.15;101027.44;4900163;29;20120;-67
2022/10/22 10:02:11;;;;;;;18.63;5.30;;;21.60;99.90;;;22.04;69.51;101093.50;4900430;29;20048;-67
2022/10/22 10:04:56;;;;;;;11.52;5.05;;;21.90;99.90;;;22.26;68.61;101133.78;4899182;29;20105;-69
2022/10/22 10:07:30;;;;;;;21.67;5.53;;;21.90;99.90;;;22.07;68.50;101108.63;4900262;29;20391;-68
2022/10/22 10:10:00;;;;;;;19.48;5.60;;;21.90;99.90;;;22.44;68.62;101136.44;4900850;29;20079;-69
2022/10/22 10:12:42;;;;;;;17.52;5.78;;;22.10;99.90;;;22.53;66.82;101134.25;4900759;29;20048;-68
2022/10/22 10:15:20;;;;;;;18.27;5.10;;;22.20;99.90;;;22.64;67.17;101148.09;4900184;29;20496;-68
2022/10/22 10:18:03;;;;;;;15.77;4.82;;;22.30;99.90;;;22.59;66.00;101145.63;4900304;29;20049;-68
2022/10/22 10:20:40;;;;;;;15.82;5.03;;;22.30;99.90;;;22.44;65.61;101114.88;4900171;29;20148;-68
2022/10/22 10:23:19;;;;;;;17.45;5.10;;;22.30;99.90;;;22.73;65.80;101163.81;4899031;29;20053;-68
2022/10/22 10:26:04;;;;;;;16.05;5.15;;;22.40;99.90;;;22.57;65.64;101162.84;4900313;29;20081;-69